Fengtai, China
Current Conditions -  °F | °C
As of 10:30 PM on Sunday 23 Nov 2014 (Local Time) from ZBAA Reporting Station
Light Fog Light Fog  
Wind Chill: 30°   Ceiling: Unl
Heat Index: 30°   Visibility: 1.1mi
Dew Point: 30°   Wind: 2mph
Humidity: 100%   Direction: 20°NNE
Pressure: 30.33"   Gusts: NA
Location:  39.9°N, 116.2°E
Report Text: ZBAA 231430Z 02001MPS 1800 R01/0225V0375N R36R/1800NR36L/1400NBR BCFG NSC M01/M01 Q1027 BECMG TL1550 3500
Loading
Personal Weather Stations






























Interactive Weather Map New forecast layout! Learn more

10-Day Weather Forecast

Advertisements
Track Severe Weather on mobile